createdAt,value
2023-05-01T00:01:55.212Z,100.00
2023-05-01T00:04:45.308Z,100.00
2023-05-01T00:07:33.487Z,100.00
2023-05-01T00:10:24.883Z,100.00
2023-05-01T00:13:12.910Z,100.00
2023-05-01T00:16:00.687Z,100.00
2023-05-01T00:18:48.443Z,100.00
2023-05-01T00:21:36.177Z,100.00
2023-05-01T00:24:26.685Z,100.00
2023-05-01T00:27:14.329Z,100.00
2023-05-01T00:30:02.173Z,100.00
2023-05-01T00:32:52.610Z,100.00
2023-05-01T00:35:40.470Z,100.00
2023-05-01T00:38:28.243Z,100.00
2023-05-01T00:41:16.681Z,100.00
2023-05-01T00:44:04.539Z,100.00
2023-05-01T00:46:52.336Z,100.00
2023-05-01T00:49:43.137Z,100.00
2023-05-01T00:52:30.936Z,100.00
2023-05-01T00:55:18.867Z,100.00
2023-05-01T00:58:06.837Z,100.00
2023-05-01T01:00:55.215Z,100.00
2023-05-01T01:03:43.059Z,100.00
2023-05-01T01:06:42.013Z,100.00
2023-05-01T01:09:48.097Z,100.00
2023-05-01T01:13:04.819Z,100.00
2023-05-01T01:16:14.120Z,100.00
2023-05-01T01:19:39.023Z,100.00
2023-05-01T01:22:29.261Z,100.00
2023-05-01T01:25:48.942Z,100.00
2023-05-01T01:28:55.249Z,100.00
2023-05-01T01:32:33.018Z,100.00
2023-05-01T01:35:26.132Z,100.00
2023-05-01T01:38:13.774Z,100.00
2023-05-01T01:41:31.956Z,100.00
2023-05-01T01:44:29.111Z,100.00
2023-05-01T01:47:18.386Z,100.00
2023-05-01T01:50:08.710Z,100.00
2023-05-01T01:53:00.455Z,100.00
2023-05-01T01:55:49.399Z,100.00
2023-05-01T01:58:40.132Z,100.00
2023-05-01T02:01:29.741Z,100.00
2023-05-01T02:04:19.531Z,100.00
2023-05-01T02:07:09.128Z,100.00
2023-05-01T02:09:58.265Z,100.00
2023-05-01T02:12:48.843Z,100.00
2023-05-01T02:15:40.714Z,100.00
2023-05-01T02:18:29.994Z,100.00
2023-05-01T02:21:20.538Z,100.00
2023-05-01T02:24:10.687Z,100.00
2023-05-01T02:27:04.070Z,100.00
2023-05-01T02:29:52.551Z,100.00
2023-05-01T02:32:40.361Z,100.00
2023-05-01T02:35:28.284Z,100.00
2023-05-01T02:38:17.202Z,100.00
2023-05-01T02:41:09.039Z,100.00
2023-05-01T02:44:01.921Z,100.00
2023-05-01T02:46:52.873Z,100.00
2023-05-01T02:49:42.389Z,100.00
2023-05-01T02:52:30.888Z,100.00
2023-05-01T02:55:37.878Z,100.00
2023-05-01T02:58:25.594Z,100.00
2023-05-01T03:01:13.443Z,100.00
2023-05-01T03:04:04.267Z,100.00
2023-05-01T03:06:52.459Z,100.00
2023-05-01T03:09:40.685Z,100.00
2023-05-01T03:12:36.218Z,100.00
2023-05-01T03:15:24.027Z,100.00
2023-05-01T03:18:11.814Z,100.00
2023-05-01T03:21:00.026Z,100.00
2023-05-01T03:23:49.295Z,100.00
2023-05-01T03:26:36.909Z,100.00
2023-05-01T03:29:24.664Z,100.00
2023-05-01T03:32:12.808Z,100.00
2023-05-01T03:35:00.746Z,100.00
2023-05-01T03:37:48.702Z,100.00
2023-05-01T03:40:57.706Z,100.00
2023-05-01T03:44:06.579Z,100.00
2023-05-01T03:47:05.013Z,100.00
2023-05-01T03:49:58.616Z,100.00
2023-05-01T03:52:49.795Z,100.00
2023-05-01T03:55:37.517Z,100.00
2023-05-01T03:58:25.482Z,100.00
2023-05-01T04:01:16.180Z,100.00
2023-05-01T04:04:06.101Z,100.00
2023-05-01T04:06:54.170Z,100.00
2023-05-01T04:09:42.006Z,100.00
2023-05-01T04:12:29.971Z,100.00
2023-05-01T04:15:17.728Z,100.00
2023-05-01T04:18:05.468Z,100.00
2023-05-01T04:20:55.462Z,100.00
2023-05-01T04:23:43.285Z,100.00
2023-05-01T04:26:31.123Z,100.00
2023-05-01T04:29:19.117Z,100.00
2023-05-01T04:32:07.129Z,100.00
2023-05-01T04:34:54.931Z,100.00
2023-05-01T04:37:42.761Z,100.00
2023-05-01T04:40:30.909Z,100.00
2023-05-01T04:43:19.961Z,100.00
2023-05-01T04:46:07.835Z,100.00
2023-05-01T04:48:58.462Z,100.00
2023-05-01T04:51:46.740Z,100.00
2023-05-01T04:54:36.519Z,100.00
2023-05-01T04:57:24.172Z,100.00
2023-05-01T05:00:12.618Z,100.00
2023-05-01T05:03:09.825Z,100.00
2023-05-01T05:05:58.652Z,100.00
2023-05-01T05:08:46.688Z,100.00
2023-05-01T05:11:34.407Z,100.00
2023-05-01T05:14:29.537Z,100.00
2023-05-01T05:17:17.369Z,100.00
2023-05-01T05:20:05.911Z,100.00
2023-05-01T05:22:54.056Z,100.00
2023-05-01T05:25:44.113Z,100.00
2023-05-01T05:28:32.063Z,100.00
2023-05-01T05:31:20.412Z,100.00
2023-05-01T05:34:08.620Z,100.00
2023-05-01T05:36:56.413Z,100.00
2023-05-01T05:39:46.318Z,100.00
2023-05-01T05:42:34.606Z,100.00
2023-05-01T05:45:25.843Z,100.00
2023-05-01T05:48:13.736Z,100.00
2023-05-01T05:51:02.082Z,100.00
2023-05-01T05:53:50.033Z,100.00
2023-05-01T05:56:37.790Z,100.00
2023-05-01T05:59:26.474Z,100.00
2023-05-01T06:02:14.653Z,100.00
2023-05-01T06:05:02.733Z,100.00
2023-05-01T06:07:50.456Z,100.00
2023-05-01T06:10:41.585Z,100.00
2023-05-01T06:13:29.829Z,100.00
2023-05-01T06:16:17.688Z,100.00
2023-05-01T06:19:05.628Z,100.00
2023-05-01T06:21:53.885Z,100.00
2023-05-01T06:24:41.662Z,100.00
2023-05-01T06:27:30.931Z,100.00
2023-05-01T06:30:19.970Z,100.00
2023-05-01T06:33:07.755Z,100.00
2023-05-01T06:35:56.287Z,100.00
2023-05-01T06:38:48.985Z,100.00
2023-05-01T06:41:38.893Z,100.00
2023-05-01T06:44:26.671Z,100.00
2023-05-01T06:47:14.667Z,100.00
2023-05-01T06:50:05.244Z,100.00
2023-05-01T06:52:54.159Z,100.00
2023-05-01T06:55:41.831Z,100.00
2023-05-01T06:58:29.518Z,100.00
2023-05-01T07:01:17.910Z,100.00
2023-05-01T07:04:05.669Z,100.00
2023-05-01T07:06:53.519Z,100.00
2023-05-01T07:09:41.666Z,100.00
2023-05-01T07:12:29.992Z,100.00
2023-05-01T07:15:17.752Z,100.00
2023-05-01T07:18:08.818Z,100.00
2023-05-01T07:20:56.633Z,100.00
2023-05-01T07:23:49.524Z,100.00
2023-05-01T07:26:38.827Z,100.00
2023-05-01T07:29:26.617Z,100.00
2023-05-01T07:32:14.658Z,100.00
2023-05-01T07:35:02.809Z,100.00
2023-05-01T07:37:55.255Z,100.00
2023-05-01T07:40:43.007Z,100.00
2023-05-01T07:43:30.716Z,100.00
2023-05-01T07:46:18.526Z,100.00
2023-05-01T07:49:09.376Z,100.00
2023-05-01T07:51:57.055Z,100.00
2023-05-01T07:54:50.007Z,100.00
2023-05-01T07:57:37.760Z,100.00
2023-05-01T08:00:25.787Z,100.00
2023-05-01T08:03:13.733Z,100.00
2023-05-01T08:06:01.561Z,100.00
2023-05-01T08:08:49.222Z,100.00
2023-05-01T08:11:36.974Z,100.00
2023-05-01T08:14:24.768Z,100.00
2023-05-01T08:17:12.596Z,100.00
2023-05-01T08:20:01.064Z,100.00
2023-05-01T08:22:48.789Z,100.00
2023-05-01T08:25:36.400Z,100.00
2023-05-01T08:28:24.179Z,100.00
2023-05-01T08:31:11.815Z,100.00
2023-05-01T08:33:59.570Z,100.00
2023-05-01T08:36:47.336Z,100.00
2023-05-01T08:39:35.058Z,100.00
2023-05-01T08:42:23.217Z,97.63
2023-05-01T08:45:12.104Z,100.00
2023-05-01T08:48:02.077Z,99.54
2023-05-01T08:50:50.756Z,95.71
2023-05-01T08:53:41.712Z,91.99
2023-05-01T08:56:31.882Z,91.11
2023-05-01T08:59:20.855Z,89.60
2023-05-01T09:02:10.166Z,92.96
2023-05-01T09:05:01.360Z,92.89
2023-05-01T09:07:49.678Z,89.15
2023-05-01T09:10:45.596Z,84.38
2023-05-01T09:13:33.755Z,85.38
2023-05-01T09:16:22.216Z,86.82
2023-05-01T09:19:10.348Z,85.24
2023-05-01T09:21:58.004Z,84.29
2023-05-01T09:24:48.478Z,83.03
2023-05-01T09:27:38.289Z,84.41
2023-05-01T09:30:38.798Z,83.17
2023-05-01T09:33:26.644Z,80.66
2023-05-01T09:36:17.848Z,81.13
2023-05-01T09:39:05.576Z,80.03
2023-05-01T09:41:53.253Z,80.36
2023-05-01T09:44:45.391Z,82.87
2023-05-01T09:47:34.573Z,80.20
2023-05-01T09:50:35.860Z,78.93
2023-05-01T09:53:43.702Z,82.47
2023-05-01T09:56:33.464Z,75.44
2023-05-01T09:59:21.728Z,72.21
2023-05-01T10:02:29.942Z,73.19
2023-05-01T10:05:18.728Z,72.16
2023-05-01T10:08:10.566Z,70.52
2023-05-01T10:11:07.962Z,65.82
2023-05-01T10:14:08.123Z,64.10
2023-05-01T10:16:58.189Z,68.78
2023-05-01T10:19:47.514Z,66.81
2023-05-01T10:22:35.442Z,67.63
2023-05-01T10:25:25.924Z,70.72
2023-05-01T10:28:14.342Z,70.21
2023-05-01T10:31:03.844Z,67.86
2023-05-01T10:33:53.294Z,66.79
2023-05-01T10:36:47.865Z,67.37
2023-05-01T10:39:36.919Z,68.18
2023-05-01T10:42:24.613Z,64.80
2023-05-01T10:45:31.205Z,61.77
2023-05-01T10:48:41.080Z,61.72
2023-05-01T10:51:28.803Z,60.67
2023-05-01T10:54:20.627Z,61.72
2023-05-01T10:57:08.539Z,62.20
2023-05-01T11:00:02.140Z,61.71
2023-05-01T11:02:49.975Z,60.78
2023-05-01T11:06:04.945Z,58.10
2023-05-01T11:08:53.414Z,59.06
2023-05-01T11:11:43.693Z,58.51
2023-05-01T11:15:03.846Z,60.02
2023-05-01T11:17:52.605Z,60.88
2023-05-01T11:20:47.746Z,57.69
2023-05-01T11:23:36.919Z,56.67
2023-05-01T11:26:27.766Z,56.35
2023-05-01T11:29:15.749Z,57.36
2023-05-01T11:32:03.581Z,60.33
2023-05-01T11:34:52.346Z,56.43
2023-05-01T11:37:44.820Z,54.38
2023-05-01T11:40:35.546Z,56.92
2023-05-01T11:43:23.759Z,58.09
2023-05-01T11:46:13.339Z,54.84
2023-05-01T11:49:01.919Z,58.56
2023-05-01T11:51:57.656Z,58.61
2023-05-01T11:54:48.664Z,59.26
2023-05-01T11:58:06.546Z,59.55
2023-05-01T12:00:54.153Z,57.25
2023-05-01T12:03:43.501Z,58.62
2023-05-01T12:06:45.870Z,57.55
2023-05-01T12:09:34.166Z,54.81
2023-05-01T12:12:24.108Z,55.72
2023-05-01T12:15:12.424Z,57.39
2023-05-01T12:18:00.363Z,57.53
2023-05-01T12:20:53.223Z,56.78
2023-05-01T12:23:41.082Z,55.94
2023-05-01T12:26:30.219Z,56.83
2023-05-01T12:29:17.969Z,56.30
2023-05-01T12:32:06.018Z,56.65
2023-05-01T12:34:53.745Z,56.03
2023-05-01T12:37:41.697Z,54.84
2023-05-01T12:40:29.414Z,53.81
2023-05-01T12:43:17.354Z,53.93
2023-05-01T12:46:06.232Z,55.14
2023-05-01T12:48:55.200Z,55.34
2023-05-01T12:51:49.875Z,53.16
2023-05-01T12:54:40.966Z,52.62
2023-05-01T12:57:28.674Z,54.25
2023-05-01T13:00:16.818Z,52.65
2023-05-01T13:03:05.671Z,51.93
2023-05-01T13:05:55.710Z,53.93
2023-05-01T13:08:43.479Z,51.54
2023-05-01T13:11:31.476Z,52.55
2023-05-01T13:14:19.199Z,56.41
2023-05-01T13:17:12.749Z,53.47
2023-05-01T13:20:04.320Z,53.36
2023-05-01T13:22:52.134Z,54.81
2023-05-01T13:25:40.142Z,54.81
2023-05-01T13:28:30.072Z,55.52
2023-05-01T13:31:17.832Z,55.68
2023-05-01T13:34:06.010Z,55.75
2023-05-01T13:36:56.306Z,54.27
2023-05-01T13:39:45.440Z,53.04
2023-05-01T13:42:33.211Z,54.75
2023-05-01T13:45:23.633Z,53.58
2023-05-01T13:48:11.652Z,55.98
2023-05-01T13:50:59.504Z,54.39
2023-05-01T13:53:48.437Z,53.80
2023-05-01T13:56:39.724Z,55.50
2023-05-01T13:59:39.761Z,57.61
2023-05-01T14:02:29.484Z,56.42
2023-05-01T14:05:23.693Z,57.17
2023-05-01T14:08:12.145Z,56.34
2023-05-01T14:10:59.861Z,57.07
2023-05-01T14:13:51.125Z,55.39
2023-05-01T14:16:41.165Z,57.03
2023-05-01T14:19:29.032Z,57.38
2023-05-01T14:22:16.746Z,56.71
2023-05-01T14:25:07.007Z,56.37
2023-05-01T14:27:55.931Z,55.94
2023-05-01T14:30:46.423Z,56.86
2023-05-01T14:33:34.123Z,55.50
2023-05-01T14:36:21.759Z,54.81
2023-05-01T14:39:09.745Z,54.86
2023-05-01T14:41:58.515Z,54.73
2023-05-01T14:44:46.191Z,54.73
2023-05-01T14:47:33.917Z,54.34
2023-05-01T14:50:25.678Z,56.29
2023-05-01T14:53:14.432Z,56.27
2023-05-01T14:56:02.175Z,57.23
2023-05-01T14:58:50.296Z,58.18
2023-05-01T15:01:37.976Z,55.73
2023-05-01T15:04:25.883Z,55.72
2023-05-01T15:07:14.194Z,55.96
2023-05-01T15:10:06.951Z,58.40
2023-05-01T15:12:54.592Z,58.42
2023-05-01T15:15:42.232Z,58.93
2023-05-01T15:18:29.958Z,58.01
2023-05-01T15:21:18.453Z,57.37
2023-05-01T15:24:10.506Z,57.12
2023-05-01T15:26:58.133Z,58.12
2023-05-01T15:29:45.866Z,57.27
2023-05-01T15:32:33.658Z,56.15
2023-05-01T15:35:21.853Z,55.88
2023-05-01T15:38:09.768Z,56.83
2023-05-01T15:40:57.585Z,57.60
2023-05-01T15:43:45.191Z,57.58
2023-05-01T15:46:36.751Z,57.81
2023-05-01T15:49:24.558Z,57.26
2023-05-01T15:52:12.398Z,56.67
2023-05-01T15:55:00.170Z,56.90
2023-05-01T15:57:48.971Z,57.13
2023-05-01T16:00:38.578Z,57.88
2023-05-01T16:03:26.815Z,58.06
2023-05-01T16:06:22.195Z,58.40
2023-05-01T16:09:14.428Z,57.71
2023-05-01T16:12:05.356Z,58.25
2023-05-01T16:14:55.919Z,58.86
2023-05-01T16:17:44.877Z,58.52
2023-05-01T16:20:41.952Z,58.79
2023-05-01T16:23:29.645Z,59.53
2023-05-01T16:26:28.696Z,60.33
2023-05-01T16:29:16.492Z,60.49
2023-05-01T16:32:11.540Z,61.10
2023-05-01T16:35:03.714Z,61.36
2023-05-01T16:37:53.350Z,61.67
2023-05-01T16:40:49.443Z,62.30
2023-05-01T16:43:44.596Z,62.51
2023-05-01T16:46:33.767Z,62.69
2023-05-01T16:49:23.087Z,65.25
2023-05-01T16:52:14.429Z,63.35
2023-05-01T16:55:02.141Z,64.89
2023-05-01T16:57:49.890Z,63.83
2023-05-01T17:00:37.576Z,64.13
2023-05-01T17:03:25.252Z,63.60
2023-05-01T17:06:16.006Z,64.48
2023-05-01T17:09:03.850Z,64.11
2023-05-01T17:11:51.539Z,64.85
2023-05-01T17:14:42.330Z,64.61
2023-05-01T17:17:30.308Z,64.47
2023-05-01T17:20:18.054Z,64.68
2023-05-01T17:23:11.745Z,64.57
2023-05-01T17:25:59.458Z,64.92
2023-05-01T17:28:47.221Z,65.98
2023-05-01T17:31:34.946Z,66.73
2023-05-01T17:34:22.912Z,67.14
2023-05-01T17:37:10.706Z,68.06
2023-05-01T17:39:58.542Z,68.99
2023-05-01T17:42:46.651Z,69.05
2023-05-01T17:45:34.464Z,70.11
2023-05-01T17:48:23.484Z,71.10
2023-05-01T17:51:14.093Z,72.57
2023-05-01T17:54:01.992Z,73.58
2023-05-01T17:56:49.782Z,74.49
2023-05-01T17:59:37.585Z,74.15
2023-05-01T18:02:26.904Z,74.83
2023-05-01T18:05:14.883Z,76.18
2023-05-01T18:08:02.806Z,76.50
2023-05-01T18:10:50.792Z,77.54
2023-05-01T18:13:40.155Z,78.34
2023-05-01T18:16:27.914Z,78.82
2023-05-01T18:19:15.705Z,78.96
2023-05-01T18:22:04.478Z,80.67
2023-05-01T18:24:56.475Z,80.13
2023-05-01T18:27:45.328Z,80.72
2023-05-01T18:30:33.287Z,80.82
2023-05-01T18:33:21.873Z,82.23
2023-05-01T18:36:10.894Z,82.29
2023-05-01T18:39:02.125Z,82.96
2023-05-01T18:41:54.918Z,84.09
2023-05-01T18:44:48.598Z,84.72
2023-05-01T18:47:36.572Z,85.25
2023-05-01T18:50:24.428Z,85.80
2023-05-01T18:53:17.417Z,85.75
2023-05-01T18:56:06.320Z,86.88
2023-05-01T18:58:56.279Z,89.35
2023-05-01T19:01:44.303Z,89.94
2023-05-01T19:04:49.449Z,91.25
2023-05-01T19:08:02.846Z,91.57
2023-05-01T19:10:50.691Z,92.74
2023-05-01T19:13:38.383Z,93.84
2023-05-01T19:16:29.041Z,96.27
2023-05-01T19:19:19.129Z,95.97
2023-05-01T19:22:07.421Z,94.68
2023-05-01T19:24:55.029Z,94.04
2023-05-01T19:27:43.001Z,94.46
2023-05-01T19:30:31.354Z,96.02
2023-05-01T19:33:19.077Z,94.76
2023-05-01T19:36:06.746Z,97.00
2023-05-01T19:38:54.401Z,96.10
2023-05-01T19:41:42.426Z,97.81
2023-05-01T19:44:30.435Z,99.10
2023-05-01T19:47:18.237Z,100.00
2023-05-01T19:50:09.469Z,100.00
2023-05-01T19:52:57.640Z,100.00
2023-05-01T19:55:47.760Z,100.00
2023-05-01T19:58:35.735Z,100.00
2023-05-01T20:01:23.563Z,100.00
2023-05-01T20:04:11.970Z,100.00
2023-05-01T20:06:59.634Z,100.00
2023-05-01T20:09:47.649Z,100.00
2023-05-01T20:12:35.230Z,100.00
2023-05-01T20:15:23.421Z,100.00
2023-05-01T20:18:13.375Z,100.00
2023-05-01T20:21:03.308Z,100.00
2023-05-01T20:23:52.610Z,100.00
2023-05-01T20:26:40.320Z,100.00
2023-05-01T20:29:28.394Z,100.00
2023-05-01T20:32:16.627Z,100.00
2023-05-01T20:35:04.565Z,100.00
2023-05-01T20:37:52.659Z,100.00
2023-05-01T20:40:40.953Z,100.00
2023-05-01T20:43:28.582Z,100.00
2023-05-01T20:46:18.002Z,100.00
2023-05-01T20:49:10.263Z,100.00
2023-05-01T20:51:58.765Z,100.00
2023-05-01T20:54:46.567Z,100.00
2023-05-01T20:57:36.661Z,100.00
2023-05-01T21:00:24.581Z,100.00
2023-05-01T21:03:14.588Z,100.00
2023-05-01T21:06:02.592Z,100.00
2023-05-01T21:08:50.309Z,100.00
2023-05-01T21:11:40.941Z,100.00
2023-05-01T21:14:28.994Z,100.00
2023-05-01T21:17:18.936Z,100.00
2023-05-01T21:20:21.697Z,100.00
2023-05-01T21:23:09.383Z,100.00
2023-05-01T21:25:57.369Z,100.00
2023-05-01T21:28:45.178Z,100.00
2023-05-01T21:31:33.029Z,100.00
2023-05-01T21:34:20.947Z,100.00
2023-05-01T21:37:08.694Z,100.00
2023-05-01T21:39:59.544Z,100.00
2023-05-01T21:42:49.988Z,100.00
2023-05-01T21:45:43.702Z,100.00
2023-05-01T21:48:34.944Z,100.00
2023-05-01T21:51:33.235Z,100.00
2023-05-01T21:54:21.697Z,100.00
2023-05-01T21:57:09.481Z,100.00
2023-05-01T21:59:58.756Z,100.00
2023-05-01T22:02:48.658Z,100.00
2023-05-01T22:05:41.044Z,100.00
2023-05-01T22:08:30.885Z,100.00
2023-05-01T22:11:18.796Z,100.00
2023-05-01T22:14:11.264Z,100.00
2023-05-01T22:16:59.012Z,100.00
2023-05-01T22:19:46.735Z,100.00
2023-05-01T22:22:35.487Z,100.00
2023-05-01T22:25:23.143Z,100.00
2023-05-01T22:28:10.986Z,100.00
2023-05-01T22:30:59.080Z,100.00
2023-05-01T22:33:48.242Z,100.00
2023-05-01T22:36:35.908Z,100.00
2023-05-01T22:39:23.688Z,100.00
2023-05-01T22:42:11.435Z,100.00
2023-05-01T22:44:59.245Z,100.00
2023-05-01T22:47:47.149Z,100.00
2023-05-01T22:50:34.931Z,100.00
2023-05-01T22:53:22.622Z,100.00
2023-05-01T22:56:12.417Z,100.00
2023-05-01T22:59:00.184Z,100.00
2023-05-01T23:01:47.892Z,100.00
2023-05-01T23:04:40.851Z,100.00
2023-05-01T23:07:28.605Z,100.00
2023-05-01T23:10:16.356Z,100.00
2023-05-01T23:13:14.930Z,100.00
2023-05-01T23:16:06.236Z,100.00
2023-05-01T23:18:58.708Z,100.00
2023-05-01T23:21:46.680Z,100.00
2023-05-01T23:24:51.229Z,100.00
2023-05-01T23:27:48.897Z,100.00
2023-05-01T23:30:37.221Z,100.00
2023-05-01T23:33:26.196Z,100.00
2023-05-01T23:36:13.924Z,100.00
2023-05-01T23:39:01.657Z,100.00
2023-05-01T23:41:50.666Z,100.00
2023-05-01T23:44:38.330Z,100.00
2023-05-01T23:47:26.532Z,100.00
2023-05-01T23:50:14.338Z,100.00
2023-05-01T23:53:09.100Z,100.00
2023-05-01T23:55:57.163Z,100.00
2023-05-01T23:58:45.136Z,100.00
